createdAt,value
2022-09-28T00:03:03.794Z,97088.52
2022-09-28T00:08:05.622Z,97084.55
2022-09-28T00:13:08.200Z,97080.05
2022-09-28T00:18:10.491Z,97080.02
2022-09-28T00:23:17.050Z,97082.27
2022-09-28T00:28:18.991Z,97084.27
2022-09-28T00:33:20.729Z,97079.52
2022-09-28T00:38:25.545Z,97075.45
2022-09-28T00:43:28.105Z,97075.17
2022-09-28T00:48:34.097Z,97074.90
2022-09-28T00:53:37.845Z,97073.28
2022-09-28T00:58:44.334Z,97077.47
2022-09-28T01:03:48.845Z,97082.01
2022-09-28T01:08:54.388Z,97075.84
2022-09-28T01:13:58.020Z,97076.61
2022-09-28T01:19:35.379Z,97077.15
2022-09-28T01:24:46.286Z,97083.91
2022-09-28T01:30:04.678Z,97081.89
2022-09-28T01:35:15.038Z,97085.21
2022-09-28T01:40:26.328Z,97082.97
2022-09-28T01:45:33.798Z,97081.98
2022-09-28T01:50:54.363Z,97082.11
2022-09-28T01:56:34.500Z,97080.58
2022-09-28T02:01:59.537Z,97072.04
2022-09-28T02:07:17.062Z,97070.20
2022-09-28T02:12:37.419Z,97064.08
2022-09-28T02:17:39.552Z,97067.14
2022-09-28T02:22:47.666Z,97073.25
2022-09-28T02:28:01.990Z,97071.92
2022-09-28T02:33:11.725Z,97084.15
2022-09-28T02:38:15.016Z,97087.92
2022-09-28T02:43:50.118Z,97086.82
2022-09-28T02:49:24.122Z,97083.98
2022-09-28T02:55:01.641Z,97081.77
2022-09-28T03:00:12.020Z,97082.52
2022-09-28T03:05:45.517Z,97082.16
2022-09-28T03:10:58.907Z,97080.39
2022-09-28T03:16:19.408Z,97081.58
2022-09-28T03:21:23.260Z,97076.66
2022-09-28T03:26:25.303Z,97087.86
2022-09-28T03:31:27.150Z,97087.19
2022-09-28T03:36:29.168Z,97088.00
2022-09-28T03:41:31.289Z,97099.63
2022-09-28T03:46:33.134Z,97098.84
2022-09-28T03:51:39.197Z,97093.17
2022-09-28T03:56:41.120Z,97085.28
2022-09-28T04:01:42.965Z,97079.66
2022-09-28T04:06:45.357Z,97077.49
2022-09-28T04:12:02.856Z,97080.41
2022-09-28T04:17:07.226Z,97084.55
2022-09-28T04:22:30.292Z,97095.66
2022-09-28T04:28:04.397Z,97086.52
2022-09-28T04:33:06.507Z,97084.04
2022-09-28T04:38:08.516Z,97078.08
2022-09-28T04:43:11.305Z,97079.13
2022-09-28T04:48:13.156Z,97081.63
2022-09-28T04:53:36.666Z,97083.91
2022-09-28T04:58:40.591Z,97080.09
2022-09-28T05:03:43.471Z,97081.27
2022-09-28T05:09:01.638Z,97074.33
2022-09-28T05:14:03.619Z,97076.74
2022-09-28T05:19:06.508Z,97081.73
2022-09-28T05:24:08.878Z,97084.90
2022-09-28T05:29:19.313Z,97082.56
2022-09-28T05:34:50.729Z,97079.02
2022-09-28T05:39:59.443Z,97083.61
2022-09-28T05:45:03.375Z,97091.30
2022-09-28T05:50:11.823Z,97090.22
2022-09-28T05:55:14.355Z,97094.98
2022-09-28T06:00:17.129Z,97098.21
2022-09-28T06:05:39.487Z,97092.63
2022-09-28T06:11:02.633Z,97082.23
2022-09-28T06:16:05.064Z,97078.06
2022-09-28T06:21:10.814Z,97070.13
2022-09-28T06:26:17.988Z,97064.94
2022-09-28T06:31:23.839Z,97060.11
2022-09-28T06:36:28.950Z,97067.50
2022-09-28T06:41:31.079Z,97072.08
2022-09-28T06:46:38.309Z,97071.15
2022-09-28T06:52:08.807Z,97072.76
2022-09-28T06:57:29.484Z,97072.39
2022-09-28T07:02:32.046Z,97072.17
2022-09-28T07:08:02.027Z,97076.34
2022-09-28T07:13:47.117Z,97078.40
2022-09-28T07:18:47.329Z,97085.33
2022-09-28T07:23:53.822Z,97083.34
2022-09-28T07:28:58.859Z,97088.58
2022-09-28T07:34:13.083Z,97091.50
2022-09-28T07:39:30.408Z,97086.17
2022-09-28T07:44:32.300Z,97081.58
2022-09-28T07:49:34.129Z,97081.19
2022-09-28T07:54:52.144Z,97081.86
2022-09-28T08:00:09.409Z,97084.00
2022-09-28T08:05:18.547Z,97083.70
2022-09-28T08:10:37.314Z,97077.25
2022-09-28T08:15:54.319Z,97071.92
2022-09-28T08:21:38.185Z,97068.05
2022-09-28T08:26:40.126Z,97062.91
2022-09-28T08:31:43.116Z,97063.58
2022-09-28T08:37:11.156Z,97057.14
2022-09-28T08:43:05.371Z,97055.39
2022-09-28T08:48:56.903Z,97050.47
2022-09-28T08:54:54.602Z,97057.85
2022-09-28T09:00:11.562Z,97054.48
2022-09-28T09:05:20.816Z,97059.80
2022-09-28T09:10:50.809Z,97067.11
2022-09-28T09:16:11.849Z,97069.29
2022-09-28T09:21:37.880Z,97065.00
2022-09-28T09:26:41.184Z,97065.13
2022-09-28T09:32:21.517Z,97059.88
2022-09-28T09:37:30.324Z,97066.52
2022-09-28T09:43:17.394Z,97065.30
2022-09-28T09:48:39.207Z,97061.23
2022-09-28T09:53:48.653Z,97057.75
2022-09-28T09:58:56.179Z,97056.05
2022-09-28T10:04:18.152Z,97055.12
2022-09-28T10:09:41.346Z,97044.27
2022-09-28T10:14:56.434Z,97033.58
2022-09-28T10:20:01.102Z,97028.17
2022-09-28T10:25:19.977Z,97018.48
2022-09-28T10:30:42.338Z,97012.79
2022-09-28T10:35:49.078Z,97000.27
2022-09-28T10:40:58.389Z,96991.04
2022-09-28T10:46:14.563Z,96982.17
2022-09-28T10:51:39.690Z,96982.95
2022-09-28T10:56:42.922Z,96973.13
2022-09-28T11:01:54.189Z,96967.09
2022-09-28T11:12:20.666Z,96954.40
2022-09-28T11:17:38.794Z,96954.64
2022-09-28T11:22:42.367Z,96944.80
2022-09-28T11:27:51.605Z,96949.10
2022-09-28T11:33:03.099Z,96956.20
2022-09-28T11:38:44.028Z,96951.44
2022-09-28T11:44:40.177Z,96935.50
2022-09-28T11:49:56.141Z,96926.72
2022-09-28T11:55:06.555Z,96927.73
2022-09-28T12:00:19.466Z,96930.89
2022-09-28T12:05:51.697Z,96920.16
2022-09-28T12:11:40.359Z,96919.57
2022-09-28T12:17:06.686Z,96918.80
2022-09-28T12:22:20.940Z,96915.35
2022-09-28T12:27:53.560Z,96919.31
2022-09-28T12:33:13.410Z,96912.70
2022-09-28T12:38:26.231Z,96910.53
2022-09-28T12:43:37.199Z,96905.48
2022-09-28T12:49:47.294Z,96904.60
2022-09-28T12:55:02.062Z,96904.36
2022-09-28T13:00:05.801Z,96900.92
2022-09-28T13:05:29.159Z,96898.76
2022-09-28T13:10:40.516Z,96900.79
2022-09-28T13:15:57.452Z,96894.08
2022-09-28T13:21:36.769Z,96888.24
2022-09-28T13:26:43.985Z,96884.98
2022-09-28T13:32:03.218Z,96882.09
2022-09-28T13:37:16.962Z,96887.12
2022-09-28T13:42:37.710Z,96883.27
2022-09-28T13:47:42.533Z,96881.21
2022-09-28T13:53:23.516Z,96877.85
2022-09-28T13:58:35.839Z,96874.77
2022-09-28T14:03:55.048Z,96874.99
2022-09-28T14:09:18.408Z,96865.09
2022-09-28T14:14:46.512Z,96856.47
2022-09-28T14:20:07.341Z,96851.10
2022-09-28T14:25:32.567Z,96854.38
2022-09-28T14:30:43.752Z,96851.73
2022-09-28T14:36:02.236Z,96844.89
2022-09-28T14:41:31.447Z,96852.28
2022-09-28T14:46:45.690Z,96850.08
2022-09-28T14:51:47.505Z,96844.52
2022-09-28T14:56:52.911Z,96833.64
2022-09-28T15:02:01.601Z,96827.49
2022-09-28T15:07:03.442Z,96833.68
2022-09-28T15:12:14.118Z,96840.98
2022-09-28T15:17:21.429Z,96849.49
2022-09-28T15:22:23.465Z,96844.63
2022-09-28T15:27:32.969Z,96850.33
2022-09-28T15:32:45.288Z,96851.48
2022-09-28T15:37:52.344Z,96852.65
2022-09-28T15:42:59.126Z,96855.39
2022-09-28T15:48:24.580Z,96864.63
2022-09-28T15:53:26.893Z,96861.64
2022-09-28T15:58:29.083Z,96858.07
2022-09-28T16:03:31.274Z,96863.63
2022-09-28T16:08:33.013Z,96864.52
2022-09-28T16:13:37.083Z,96854.15
2022-09-28T16:18:40.482Z,96845.29
2022-09-28T16:23:42.700Z,96857.19
2022-09-28T16:28:48.878Z,96871.17
2022-09-28T16:33:59.013Z,96882.39
2022-09-28T16:39:00.849Z,96886.36
2022-09-28T16:44:03.067Z,96893.45
2022-09-28T16:49:08.457Z,96897.79
2022-09-28T16:54:38.622Z,96903.58
2022-09-28T16:59:40.790Z,96908.08
2022-09-28T17:04:47.513Z,96911.77
2022-09-28T17:09:49.544Z,96916.95
2022-09-28T17:14:51.259Z,96921.95
2022-09-28T17:19:53.168Z,96925.35
2022-09-28T17:25:03.482Z,96932.05
2022-09-28T17:30:06.968Z,96945.33
2022-09-28T17:35:24.186Z,96955.40
2022-09-28T17:40:29.430Z,96945.44
2022-09-28T17:45:33.162Z,96945.23
2022-09-28T17:50:36.149Z,96959.47
2022-09-28T17:56:00.230Z,96967.65
2022-09-28T18:01:21.157Z,96970.53
2022-09-28T18:06:23.817Z,96974.17
2022-09-28T18:11:26.113Z,96972.94
2022-09-28T18:16:29.068Z,96972.94
2022-09-28T18:21:34.070Z,96973.69
2022-09-28T18:26:37.277Z,96976.66
2022-09-28T18:31:39.120Z,96977.68
2022-09-28T18:36:40.999Z,96979.98
2022-09-28T18:41:45.165Z,96987.48
2022-09-28T18:46:47.176Z,96989.64
2022-09-28T18:51:49.430Z,96994.55
2022-09-28T18:56:56.361Z,96994.48
2022-09-28T19:01:59.581Z,96998.19
2022-09-28T19:07:01.741Z,97001.70
2022-09-28T19:12:03.668Z,97003.71
2022-09-28T19:17:06.060Z,97008.80
2022-09-28T19:22:07.814Z,97010.99
2022-09-28T19:27:09.578Z,97012.52
2022-09-28T19:32:12.841Z,97014.80
2022-09-28T19:37:14.510Z,97019.88
2022-09-28T19:42:16.390Z,97027.14
2022-09-28T19:47:21.797Z,97037.45
2022-09-28T19:52:23.692Z,97049.50
2022-09-28T19:57:28.015Z,97066.48
2022-09-28T20:02:30.014Z,97063.66
2022-09-28T20:07:36.583Z,97075.69
2022-09-28T20:12:38.934Z,97092.08
2022-09-28T20:17:40.610Z,97092.11
2022-09-28T20:22:43.994Z,97098.64
2022-09-28T20:27:46.189Z,97095.95
2022-09-28T20:32:49.743Z,97092.06
2022-09-28T20:37:52.821Z,97108.54
2022-09-28T20:42:54.893Z,97116.50
2022-09-28T20:48:04.616Z,97107.70
2022-09-28T20:53:06.346Z,97106.66
2022-09-28T20:58:08.045Z,97121.10
2022-09-28T21:03:09.909Z,97134.91
2022-09-28T21:08:12.032Z,97139.46
2022-09-28T21:13:13.867Z,97133.91
2022-09-28T21:18:16.688Z,97136.28
2022-09-28T21:23:24.580Z,97141.59
2022-09-28T21:28:26.798Z,97120.70
2022-09-28T21:33:28.728Z,97142.17
2022-09-28T21:38:33.541Z,97147.20
2022-09-28T21:43:36.041Z,97152.27
2022-09-28T21:48:37.802Z,97157.16
2022-09-28T21:53:39.800Z,97160.98
2022-09-28T21:58:41.892Z,97159.64
2022-09-28T22:03:47.962Z,97170.77
2022-09-28T22:08:50.330Z,97179.36
2022-09-28T22:13:54.108Z,97183.33
2022-09-28T22:18:56.321Z,97192.89
2022-09-28T22:24:01.203Z,97202.86
2022-09-28T22:29:10.472Z,97202.96
2022-09-28T22:34:12.401Z,97206.05
2022-09-28T22:39:14.824Z,97204.31
2022-09-28T22:44:16.650Z,97207.16
2022-09-28T22:49:18.784Z,97213.48
2022-09-28T22:54:21.560Z,97218.30
2022-09-28T22:59:23.282Z,97216.10
2022-09-28T23:04:25.208Z,97214.08
2022-09-28T23:09:40.186Z,97209.10
2022-09-28T23:14:55.533Z,97202.16
2022-09-28T23:19:57.255Z,97199.52
2022-09-28T23:24:59.122Z,97194.15
2022-09-28T23:30:00.940Z,97220.14
2022-09-28T23:35:18.873Z,97231.38
2022-09-28T23:40:20.679Z,97230.80
2022-09-28T23:45:22.559Z,97233.30
2022-09-28T23:50:24.326Z,97231.76
2022-09-28T23:55:26.067Z,97234.45
